createdAt,value
2017-10-06T00:00:03.606Z,11.8
2017-10-06T00:15:03.857Z,11.8
2017-10-06T00:30:02.838Z,11.8
2017-10-06T00:45:04.609Z,11.8
2017-10-06T01:00:03.860Z,11.7
2017-10-06T01:15:04.309Z,11.7
2017-10-06T01:30:03.384Z,11.6
2017-10-06T01:45:03.127Z,11.6
2017-10-06T02:00:03.014Z,11.6
2017-10-06T02:15:02.868Z,11.6
2017-10-06T02:30:02.833Z,11.6
2017-10-06T02:45:02.872Z,11.5
2017-10-06T03:00:04.165Z,11.4
2017-10-06T03:15:02.820Z,11.4
2017-10-06T03:30:03.619Z,11.4
2017-10-06T03:45:03.429Z,11.4
2017-10-06T04:00:03.104Z,11.4
2017-10-06T04:15:02.997Z,11.3
2017-10-06T04:30:02.741Z,11.3
2017-10-06T04:45:03.446Z,11.2
2017-10-06T05:00:03.141Z,11.2
2017-10-06T05:15:02.993Z,11.2
2017-10-06T05:30:03.236Z,11.1
2017-10-06T05:45:03.076Z,11.1
2017-10-06T06:00:02.771Z,11.1
2017-10-06T06:15:03.774Z,11.1
2017-10-06T06:30:04.278Z,11
2017-10-06T06:45:03.831Z,11
2017-10-06T07:00:04.222Z,11
2017-10-06T07:15:03.058Z,10.9
2017-10-06T07:30:03.494Z,10.9
2017-10-06T07:45:03.518Z,10.9
2017-10-06T08:00:03.907Z,10.9
2017-10-06T08:15:03.027Z,10.9
2017-10-06T08:30:03.001Z,10.9
2017-10-06T08:45:02.924Z,10.9
2017-10-06T09:00:04.039Z,10.9
2017-10-06T09:15:03.105Z,10.9
2017-10-06T09:30:03.185Z,10.9
2017-10-06T09:45:02.862Z,10.9
2017-10-06T10:00:03.813Z,10.9
2017-10-06T10:15:04.087Z,10.9
2017-10-06T10:30:02.976Z,10.9
2017-10-06T10:45:02.818Z,10.9
2017-10-06T11:00:04.817Z,10.9
2017-10-06T11:15:04.175Z,10.9
2017-10-06T11:30:03.089Z,10.9
2017-10-06T11:45:02.838Z,10.9
2017-10-06T12:00:03.562Z,10.9
2017-10-06T12:15:03.723Z,10.9
2017-10-06T12:30:03.908Z,10.9
2017-10-06T12:45:02.664Z,10.9
2017-10-06T13:00:03.458Z,10.9
2017-10-06T13:15:03.627Z,10.9
2017-10-06T13:30:04.438Z,10.9
2017-10-06T13:45:08.800Z,10.9
2017-10-06T14:00:04.758Z,10.9
2017-10-06T14:15:04.756Z,10.9
2017-10-06T14:30:03.609Z,10.9
2017-10-06T14:45:03.857Z,11
2017-10-06T15:00:04.450Z,11
2017-10-06T15:15:06.676Z,11
2017-10-06T15:30:04.337Z,11
2017-10-06T15:45:04.168Z,11
2017-10-06T16:00:03.043Z,11
2017-10-06T16:15:02.972Z,11
2017-10-06T16:30:02.920Z,10.9
2017-10-06T16:45:02.909Z,10.9
2017-10-06T17:00:02.704Z,10.9
2017-10-06T17:15:03.568Z,10.9
2017-10-06T17:30:03.540Z,10.9
2017-10-06T17:45:02.665Z,10.9
2017-10-06T18:00:03.392Z,10.9
2017-10-06T18:15:03.225Z,10.9
2017-10-06T18:30:03.118Z,10.9
2017-10-06T18:45:02.914Z,10.9
2017-10-06T19:00:04.645Z,10.9
2017-10-06T19:15:03.925Z,10.9
2017-10-06T19:30:03.087Z,10.9
2017-10-06T19:45:02.954Z,10.9
2017-10-06T20:00:02.925Z,10.9
2017-10-06T20:15:03.002Z,10.9
2017-10-06T20:30:03.048Z,10.8
2017-10-06T20:45:03.060Z,10.8
2017-10-06T21:00:02.976Z,10.8
2017-10-06T21:15:02.781Z,10.8
2017-10-06T21:30:03.977Z,10.8
2017-10-06T21:45:02.780Z,10.8
2017-10-06T22:00:02.620Z,10.8
2017-10-06T22:15:03.908Z,10.8
2017-10-06T22:30:02.735Z,10.8
2017-10-06T22:45:04.079Z,10.8
2017-10-06T23:00:03.030Z,10.8
2017-10-06T23:15:02.876Z,10.8
2017-10-06T23:30:03.338Z,10.8
2017-10-06T23:45:04.281Z,10.7
